Forside
METAR-TAF:

METAR-TAF

Lufthavne :

Carmi Municipal Airport

Carmi, Illinois, USA

Breddekreds: 38-05-22N, længdekreds: 088-07-23W, højde: 118 m

Aktuelle vejr

Denne rapport blev lavet for 19 minutter siden, kl. 21:55 UTC
Vind stille
Temperatur 6°C
Fugtighed 70%
Tryk 1014 hPa
Sigt: 16.1 km
skyfri

METAR: KCUL 262155Z AUTO 00000KT 10SM CLR 06/01 A2994 RMK AO2

Tid: 16:14 (22:14 UTC)


TAF: fraværende

Vejrobservationer og prognoser fra mere end 4000 lufthavne (METAR og TAF).

De gule og røde prikker repræsenterer de meteorologiske stationer.

Flyt musen over at se navnet på stationen.

Så klik over at se vejr observationer og prognoser.

At skifte det kort: Klik på de grønne knapper med et sort kors for at zoome ind; på den grønne knap med en bindestreg for at zoome ud; eller på de grønne pile for tilstødende kort.


METAR-TAF: